Time;durP1;ratioP1;P1;durP2;ratioP2;P2;SDS_P1;SDS_P2;PMS_P1;PMS_P2;Temp;Humidity;BMP_temperature;BMP_pressure;BME280_temperature;BME280_humidity;BME280_pressure;Samples;Min_cycle;Max_cycle;Signal;HPM_P1;HPM_P2
2023/06/29 00:01:26;;;;;;;21.30;17.45;;;18.30;85.10;;;;;;5002704;28;20018;-66
2023/06/29 00:03:52;;;;;;;19.10;16.63;;;18.30;85.00;;;;;;5026644;28;20434;-71
2023/06/29 00:06:18;;;;;;;18.55;16.58;;;18.20;84.80;;;;;;5021246;28;20033;-67
2023/06/29 00:08:43;;;;;;;20.77;17.13;;;18.20;85.50;;;;;;5021483;28;20033;-69
2023/06/29 00:11:09;;;;;;;21.45;18.05;;;18.20;85.30;;;;;;5018374;28;20044;-66
2023/06/29 00:13:35;;;;;;;19.65;17.42;;;18.20;85.40;;;;;;5033156;28;20025;-66
2023/06/29 00:16:01;;;;;;;23.13;18.88;;;18.20;86.00;;;;;;5027521;28;20060;-67
2023/06/29 00:18:30;;;;;;;21.60;18.65;;;18.10;85.70;;;;;;5033209;28;20069;-69
2023/06/29 00:20:56;;;;;;;21.85;19.17;;;18.20;85.80;;;;;;5019685;28;20088;-69
2023/06/29 00:23:24;;;;;;;23.98;19.67;;;18.10;86.20;;;;;;5027227;28;20113;-70
2023/06/29 00:25:52;;;;;;;23.35;20.00;;;18.10;85.60;;;;;;5025966;28;20036;-66
2023/06/29 00:28:18;;;;;;;24.55;18.98;;;18.20;85.60;;;;;;5030410;28;20135;-67
2023/06/29 00:30:44;;;;;;;21.25;18.60;;;18.10;86.10;;;;;;5027663;28;20165;-67
2023/06/29 00:33:09;;;;;;;23.52;19.00;;;18.10;86.40;;;;;;5028423;28;20041;-67
2023/06/29 00:35:35;;;;;;;22.63;18.67;;;18.10;86.30;;;;;;5027310;28;20280;-69
2023/06/29 00:38:00;;;;;;;24.98;18.55;;;18.10;86.40;;;;;;5027752;28;20068;-67
2023/06/29 00:40:26;;;;;;;25.70;19.67;;;18.10;86.30;;;;;;5029218;28;20065;-69
2023/06/29 00:42:52;;;;;;;21.75;18.98;;;18.10;86.80;;;;;;5028754;28;20071;-68
2023/06/29 00:45:17;;;;;;;20.30;17.95;;;18.10;87.00;;;;;;5027273;28;20061;-68
2023/06/29 00:47:43;;;;;;;21.48;18.25;;;18.00;87.20;;;;;;5035611;28;20033;-68
2023/06/29 00:50:09;;;;;;;21.33;17.58;;;18.00;87.10;;;;;;5027391;28;20122;-67
2023/06/29 00:52:35;;;;;;;20.67;18.35;;;18.00;87.30;;;;;;5027269;28;20045;-69
2023/06/29 00:55:02;;;;;;;20.13;17.98;;;18.10;87.50;;;;;;5027850;28;20034;-68
2023/06/29 00:57:29;;;;;;;21.08;17.92;;;18.00;87.60;;;;;;5026769;28;20045;-69
2023/06/29 00:59:59;;;;;;;19.75;17.38;;;18.00;87.50;;;;;;5024354;28;20056;-68
2023/06/29 01:02:25;;;;;;;19.48;17.27;;;18.00;87.40;;;;;;5024267;28;20140;-68
2023/06/29 01:04:51;;;;;;;22.55;17.77;;;18.00;87.40;;;;;;5024337;28;20115;-68
2023/06/29 01:07:30;;;;;;;20.10;17.27;;;18.00;87.70;;;;;;5015151;28;20374;-71
2023/06/29 01:09:57;;;;;;;21.42;17.15;;;18.00;87.80;;;;;;5023135;28;20559;-67
2023/06/29 01:12:23;;;;;;;20.17;18.08;;;18.00;88.10;;;;;;5027733;28;20037;-68
2023/06/29 01:14:50;;;;;;;20.33;18.23;;;18.00;88.20;;;;;;5027903;28;20048;-67
2023/06/29 01:17:20;;;;;;;19.75;16.08;;;17.90;88.10;;;;;;5027236;28;20032;-68
2023/06/29 01:19:47;;;;;;;21.25;17.88;;;17.90;88.00;;;;;;5021180;28;20085;-67
2023/06/29 01:22:36;;;;;;;20.50;17.27;;;17.80;88.80;;;;;;5023557;28;20026;-67
2023/06/29 01:25:02;;;;;;;19.60;16.88;;;17.80;88.70;;;;;;5019217;28;20449;-68
2023/06/29 01:27:28;;;;;;;21.63;17.42;;;17.80;88.30;;;;;;5024697;28;20037;-68
2023/06/29 01:29:55;;;;;;;21.27;18.70;;;17.80;88.90;;;;;;5022460;28;20073;-68
2023/06/29 01:32:33;;;;;;;20.73;17.83;;;17.80;88.80;;;;;;5021587;28;20033;-68
2023/06/29 01:35:00;;;;;;;21.30;17.13;;;17.80;88.40;;;;;;5023802;28;20112;-68
2023/06/29 01:37:40;;;;;;;21.30;17.33;;;17.80;89.10;;;;;;5023662;28;20041;-69
2023/06/29 01:40:10;;;;;;;22.55;17.25;;;17.80;88.80;;;;;;5013527;28;20442;-68
2023/06/29 01:42:37;;;;;;;19.48;17.40;;;17.80;89.40;;;;;;5031846;28;20441;-67
2023/06/29 01:45:06;;;;;;;20.85;18.02;;;17.80;88.90;;;;;;5028004;28;20088;-68
2023/06/29 01:47:32;;;;;;;20.65;18.05;;;17.80;89.00;;;;;;5025025;28;20195;-70
2023/06/29 01:49:59;;;;;;;19.90;17.70;;;17.80;89.30;;;;;;5024620;28;20466;-71
2023/06/29 01:52:25;;;;;;;19.50;17.27;;;17.80;89.50;;;;;;5024276;28;20447;-68
2023/06/29 01:54:51;;;;;;;21.38;17.70;;;17.80;89.60;;;;;;5021847;28;20039;-67
2023/06/29 01:57:16;;;;;;;20.48;17.05;;;17.80;89.60;;;;;;5022007;28;20029;-68
2023/06/29 01:59:43;;;;;;;22.42;18.42;;;17.80;89.90;;;;;;5024096;28;20445;-67
2023/06/29 02:02:09;;;;;;;24.65;18.42;;;17.70;89.90;;;;;;5026883;28;20040;-68
2023/06/29 02:04:35;;;;;;;19.80;17.65;;;17.70;90.10;;;;;;5030648;28;20437;-72
2023/06/29 02:07:00;;;;;;;23.95;18.50;;;17.70;90.30;;;;;;5025038;28;20041;-68
2023/06/29 02:09:26;;;;;;;23.77;18.48;;;17.60;90.40;;;;;;5024497;28;20469;-68
2023/06/29 02:11:52;;;;;;;25.35;19.17;;;17.60;90.40;;;;;;5024309;28;20038;-68
2023/06/29 02:14:17;;;;;;;21.45;17.98;;;17.60;90.60;;;;;;5026213;28;20037;-69
2023/06/29 02:16:46;;;;;;;19.77;17.52;;;17.60;90.60;;;;;;5023456;28;20029;-67
2023/06/29 02:19:12;;;;;;;21.05;18.60;;;17.60;90.70;;;;;;5021044;28;20439;-67
2023/06/29 02:21:37;;;;;;;21.55;18.65;;;17.60;90.80;;;;;;5022516;28;20136;-67
2023/06/29 02:24:03;;;;;;;22.10;18.80;;;17.60;90.90;;;;;;5022345;28;20425;-68
2023/06/29 02:26:29;;;;;;;19.92;17.17;;;17.60;90.90;;;;;;5020305;28;20029;-67
2023/06/29 02:28:54;;;;;;;23.67;16.80;;;17.70;90.60;;;;;;5025819;28;20186;-67
2023/06/29 02:31:20;;;;;;;19.92;17.67;;;17.60;90.50;;;;;;5021325;28;20034;-68
2023/06/29 02:33:45;;;;;;;21.10;15.65;;;17.60;90.50;;;;;;5028374;28;20357;-67
2023/06/29 02:36:11;;;;;;;19.35;15.27;;;17.70;90.60;;;;;;5019620;28;20377;-68
2023/06/29 02:38:37;;;;;;;20.52;15.45;;;17.70;90.20;;;;;;5026628;28;20045;-68
2023/06/29 02:41:02;;;;;;;16.42;14.73;;;17.60;90.30;;;;;;5029884;28;20127;-67
2023/06/29 02:43:28;;;;;;;17.33;14.02;;;17.60;90.20;;;;;;5026626;28;20069;-68
2023/06/29 02:45:53;;;;;;;16.73;14.75;;;17.70;90.30;;;;;;5021379;28;20403;-67
2023/06/29 02:48:19;;;;;;;16.52;14.70;;;17.70;90.60;;;;;;5031574;28;20082;-68
2023/06/29 02:50:44;;;;;;;21.40;15.40;;;17.60;90.60;;;;;;5021431;28;20438;-68
2023/06/29 02:53:13;;;;;;;18.15;14.48;;;17.70;90.60;;;;;;5025270;28;20032;-67
2023/06/29 02:55:38;;;;;;;18.25;14.55;;;17.70;90.50;;;;;;5026793;28;20396;-67
2023/06/29 02:58:04;;;;;;;16.15;13.15;;;17.70;90.60;;;;;;5019571;28;20116;-67
2023/06/29 03:00:29;;;;;;;15.43;12.88;;;17.70;90.70;;;;;;5022542;28;20041;-68
2023/06/29 03:02:55;;;;;;;17.05;12.45;;;17.70;90.60;;;;;;5021201;28;20109;-67
2023/06/29 03:05:21;;;;;;;17.77;13.10;;;17.60;90.50;;;;;;5024113;28;20044;-69
2023/06/29 03:07:46;;;;;;;15.25;13.10;;;17.60;90.70;;;;;;5026660;28;20037;-67
2023/06/29 03:10:12;;;;;;;15.88;12.30;;;17.70;90.80;;;;;;5024834;28;20033;-67
2023/06/29 03:12:37;;;;;;;14.60;11.85;;;17.70;90.80;;;;;;5023057;28;20064;-67
2023/06/29 03:15:03;;;;;;;14.35;11.20;;;17.70;90.70;;;;;;5020400;28;20071;-67
2023/06/29 03:17:28;;;;;;;15.82;12.30;;;17.70;90.80;;;;;;5029334;28;20047;-66
2023/06/29 03:19:54;;;;;;;18.17;11.70;;;17.70;90.70;;;;;;5024984;28;20132;-67
2023/06/29 03:22:19;;;;;;;13.88;12.00;;;17.70;90.70;;;;;;5022749;28;20291;-67
2023/06/29 03:24:45;;;;;;;14.88;11.57;;;17.70;90.70;;;;;;5025936;28;20030;-68
2023/06/29 03:27:11;;;;;;;17.63;11.48;;;17.60;90.80;;;;;;5014330;28;20125;-68
2023/06/29 03:29:36;;;;;;;13.90;11.27;;;17.60;91.00;;;;;;5020641;28;20034;-67
2023/06/29 03:32:02;;;;;;;14.57;11.38;;;17.60;91.00;;;;;;5023789;28;20034;-68
2023/06/29 03:34:27;;;;;;;15.27;11.50;;;17.60;91.10;;;;;;5025895;28;20191;-68
2023/06/29 03:36:53;;;;;;;18.25;11.85;;;17.60;91.10;;;;;;5019981;28;20363;-67
2023/06/29 03:39:19;;;;;;;14.52;11.27;;;17.70;91.00;;;;;;5030129;28;20095;-68
2023/06/29 03:41:44;;;;;;;15.68;12.05;;;17.70;91.10;;;;;;5024663;28;20107;-68
2023/06/29 03:44:10;;;;;;;15.45;11.35;;;17.60;91.40;;;;;;5025273;28;20398;-68
2023/06/29 03:46:36;;;;;;;13.90;10.38;;;17.60;91.30;;;;;;5021261;28;20041;-69
2023/06/29 03:49:02;;;;;;;16.30;10.98;;;17.60;91.40;;;;;;5025174;28;20040;-68
2023/06/29 03:51:28;;;;;;;13.77;10.27;;;17.60;91.40;;;;;;5016850;28;20108;-67
2023/06/29 03:53:53;;;;;;;19.17;11.25;;;17.60;91.50;;;;;;5025006;28;20017;-68
2023/06/29 03:56:19;;;;;;;17.60;11.32;;;17.70;91.50;;;;;;5025391;28;20407;-68
2023/06/29 03:58:44;;;;;;;17.20;10.55;;;17.70;91.40;;;;;;5030176;28;20036;-68
2023/06/29 04:01:10;;;;;;;18.50;11.52;;;17.70;91.40;;;;;;5026292;28;20318;-69
2023/06/29 04:03:35;;;;;;;16.33;10.27;;;17.70;91.40;;;;;;5013551;28;20033;-69
2023/06/29 04:06:01;;;;;;;14.98;10.73;;;17.70;91.40;;;;;;5030432;28;20120;-68
2023/06/29 04:08:27;;;;;;;19.05;12.05;;;17.70;91.30;;;;;;5028465;28;20049;-67
2023/06/29 04:10:53;;;;;;;14.90;11.25;;;17.70;91.50;;;;;;5025996;28;20024;-68
2023/06/29 04:13:19;;;;;;;20.35;11.02;;;17.70;91.40;;;;;;5024674;28;20049;-68
2023/06/29 04:15:44;;;;;;;15.65;10.55;;;17.70;91.60;;;;;;5028952;28;20069;-68
2023/06/29 04:18:09;;;;;;;18.45;11.23;;;17.80;91.40;;;;;;5029043;28;20060;-69
2023/06/29 04:20:36;;;;;;;15.90;10.85;;;17.80;91.60;;;;;;5022856;28;20030;-69
2023/06/29 04:23:01;;;;;;;19.90;11.90;;;17.90;91.30;;;;;;5021750;28;20040;-68
2023/06/29 04:25:27;;;;;;;15.48;10.95;;;17.90;91.30;;;;;;5024638;28;20029;-69
2023/06/29 04:27:52;;;;;;;17.48;12.00;;;17.90;91.40;;;;;;5021655;28;20422;-67
2023/06/29 04:30:18;;;;;;;15.77;10.93;;;17.80;91.50;;;;;;5022276;28;20365;-66
2023/06/29 04:32:44;;;;;;;19.27;11.50;;;18.00;91.60;;;;;;5025053;28;20025;-66
2023/06/29 04:35:09;;;;;;;17.23;11.50;;;18.00;91.30;;;;;;5021891;28;20068;-71
2023/06/29 04:37:42;;;;;;;14.02;10.68;;;18.00;91.40;;;;;;5033178;28;20117;-70
2023/06/29 04:40:09;;;;;;;17.70;11.77;;;18.00;91.30;;;;;;5023124;28;20065;-65
2023/06/29 04:42:45;;;;;;;17.10;11.55;;;18.00;91.20;;;;;;5027398;28;20021;-65
2023/06/29 04:45:12;;;;;;;19.27;11.60;;;18.00;91.10;;;;;;5005752;28;20102;-68
2023/06/29 04:47:40;;;;;;;20.95;11.25;;;18.00;91.20;;;;;;5026158;28;20078;-65
2023/06/29 04:50:07;;;;;;;18.45;10.93;;;18.10;91.10;;;;;;5028577;28;20044;-65
2023/06/29 04:52:36;;;;;;;12.98;10.40;;;18.10;91.00;;;;;;5032057;28;20139;-66
2023/06/29 04:55:06;;;;;;;16.30;11.07;;;18.20;90.90;;;;;;5028466;28;20136;-65
2023/06/29 04:57:32;;;;;;;15.48;10.43;;;18.10;90.90;;;;;;5040368;28;20034;-67
2023/06/29 04:59:57;;;;;;;15.77;10.75;;;18.20;90.90;;;;;;5018812;28;20415;-70
2023/06/29 05:02:23;;;;;;;17.95;10.60;;;18.20;90.90;;;;;;5026763;28;20133;-66
2023/06/29 05:04:49;;;;;;;15.57;10.32;;;18.30;90.80;;;;;;5030440;28;20032;-68
2023/06/29 05:07:15;;;;;;;15.50;10.68;;;18.30;90.70;;;;;;5026222;28;20025;-66
2023/06/29 05:09:40;;;;;;;15.32;9.98;;;18.40;90.60;;;;;;5024613;28;20053;-67
2023/06/29 05:12:07;;;;;;;15.93;9.93;;;18.40;90.60;;;;;;5024968;28;20430;-66
2023/06/29 05:14:33;;;;;;;14.65;10.25;;;18.50;90.60;;;;;;5029181;28;20462;-66
2023/06/29 05:16:58;;;;;;;15.05;10.45;;;18.50;90.40;;;;;;5027017;28;20135;-67
2023/06/29 05:19:24;;;;;;;16.23;10.27;;;18.50;90.40;;;;;;5029359;28;20109;-67
2023/06/29 05:21:49;;;;;;;14.52;9.45;;;18.60;90.30;;;;;;5021716;28;20374;-66
2023/06/29 05:24:15;;;;;;;12.13;9.55;;;18.60;90.10;;;;;;5010094;28;20037;-66
2023/06/29 05:26:40;;;;;;;15.80;10.52;;;18.70;90.00;;;;;;5023825;28;20257;-66
2023/06/29 05:29:06;;;;;;;16.98;10.80;;;18.70;89.80;;;;;;5027506;28;20074;-65
2023/06/29 05:31:32;;;;;;;16.35;10.52;;;18.70;89.60;;;;;;5020998;28;20025;-65
2023/06/29 05:33:57;;;;;;;13.93;10.20;;;18.80;89.90;;;;;;5033497;28;20326;-66
2023/06/29 05:36:23;;;;;;;16.40;10.90;;;18.90;89.70;;;;;;5029927;28;20067;-66
2023/06/29 05:38:48;;;;;;;19.95;10.75;;;18.90;89.50;;;;;;5031027;28;20154;-66
2023/06/29 05:41:14;;;;;;;18.42;10.38;;;19.00;89.30;;;;;;5038925;28;20178;-66
2023/06/29 05:43:39;;;;;;;16.55;9.25;;;19.00;89.30;;;;;;5024277;28;20033;-66
2023/06/29 05:46:04;;;;;;;17.42;10.13;;;19.10;89.10;;;;;;5027798;28;20029;-68
2023/06/29 05:48:30;;;;;;;15.40;10.35;;;19.20;88.80;;;;;;5023007;28;20053;-67
2023/06/29 05:50:55;;;;;;;16.40;10.07;;;19.20;88.50;;;;;;5023666;28;20120;-67
2023/06/29 05:53:21;;;;;;;15.85;9.48;;;19.30;88.40;;;;;;5023221;28;20444;-66
2023/06/29 05:55:47;;;;;;;15.98;10.00;;;19.20;88.40;;;;;;5032482;28;20202;-69
2023/06/29 05:58:12;;;;;;;15.23;9.82;;;19.30;87.90;;;;;;5032181;28;20036;-66
2023/06/29 06:00:38;;;;;;;16.83;9.60;;;19.50;87.90;;;;;;5015923;28;20428;-67
2023/06/29 06:03:04;;;;;;;18.20;10.63;;;19.50;87.60;;;;;;5029236;28;20021;-65
2023/06/29 06:05:29;;;;;;;18.33;9.80;;;19.60;87.60;;;;;;5025708;28;20018;-65
2023/06/29 06:07:55;;;;;;;18.05;9.75;;;19.70;87.00;;;;;;5027140;28;20315;-65
2023/06/29 06:10:20;;;;;;;15.88;9.13;;;19.60;86.00;;;;;;5009479;28;20397;-67
2023/06/29 06:12:46;;;;;;;13.15;9.45;;;19.60;86.30;;;;;;5026620;28;20049;-65
2023/06/29 06:15:14;;;;;;;17.52;9.65;;;19.80;86.50;;;;;;5020140;28;20044;-67
2023/06/29 06:17:39;;;;;;;15.07;8.98;;;20.00;86.20;;;;;;5027859;28;20079;-65
2023/06/29 06:20:05;;;;;;;15.88;9.68;;;19.90;86.40;;;;;;5014298;28;20104;-65
2023/06/29 06:22:31;;;;;;;16.30;9.40;;;20.00;86.20;;;;;;5023390;28;20037;-65
2023/06/29 06:24:56;;;;;;;15.13;9.65;;;20.10;85.50;;;;;;5021812;28;20044;-66
2023/06/29 06:27:22;;;;;;;17.05;8.93;;;20.30;85.70;;;;;;5022552;28;20038;-67
2023/06/29 06:29:47;;;;;;;15.27;9.07;;;20.20;84.80;;;;;;5027026;28;20418;-66
2023/06/29 06:32:13;;;;;;;16.42;9.68;;;20.20;84.80;;;;;;5028514;28;20136;-65
2023/06/29 06:34:38;;;;;;;18.98;9.65;;;20.30;85.10;;;;;;5028064;28;20497;-70
2023/06/29 06:37:05;;;;;;;16.83;9.13;;;20.50;85.00;;;;;;5020855;28;20370;-66
2023/06/29 06:39:32;;;;;;;14.70;9.45;;;20.50;84.80;;;;;;5025993;28;20518;-66
2023/06/29 06:41:59;;;;;;;16.00;9.15;;;20.40;84.10;;;;;;5007798;28;20025;-69
2023/06/29 06:44:25;;;;;;;18.05;8.98;;;20.30;84.20;;;;;;5015975;28;20083;-67
2023/06/29 06:46:50;;;;;;;16.45;9.05;;;20.20;84.00;;;;;;5022735;28;20068;-67
2023/06/29 06:49:16;;;;;;;17.25;9.60;;;20.40;84.70;;;;;;5028815;28;20457;-65
2023/06/29 06:51:41;;;;;;;14.23;8.65;;;20.40;84.30;;;;;;5019716;28;20062;-67
2023/06/29 06:54:07;;;;;;;19.70;9.80;;;20.30;84.10;;;;;;5026599;28;20029;-65
2023/06/29 06:56:33;;;;;;;19.35;8.73;;;20.10;83.80;;;;;;5024237;28;20037;-65
2023/06/29 06:58:58;;;;;;;16.85;9.00;;;20.10;84.70;;;;;;5027127;28;20158;-66
2023/06/29 07:01:25;;;;;;;15.27;9.70;;;20.10;84.30;;;;;;5010520;28;20017;-66
2023/06/29 07:03:51;;;;;;;16.30;9.55;;;20.10;84.10;;;;;;5026578;28;20112;-67
2023/06/29 07:06:17;;;;;;;19.25;9.15;;;20.20;84.90;;;;;;5007868;28;20108;-68
2023/06/29 07:08:43;;;;;;;20.45;9.50;;;20.10;84.10;;;;;;5026932;28;20458;-66
2023/06/29 07:11:08;;;;;;;17.40;10.00;;;20.30;84.90;;;;;;5025971;28;20021;-66
2023/06/29 07:13:34;;;;;;;15.27;9.20;;;20.30;83.70;;;;;;5028074;28;20063;-66
2023/06/29 07:15:59;;;;;;;19.35;9.10;;;20.50;83.90;;;;;;5019892;28;20164;-66
2023/06/29 07:18:25;;;;;;;16.75;9.10;;;20.50;83.70;;;;;;5029599;28;20468;-66
2023/06/29 07:20:51;;;;;;;17.23;8.27;;;20.60;83.60;;;;;;5027742;28;20342;-65
2023/06/29 07:23:16;;;;;;;17.05;9.65;;;20.80;83.40;;;;;;5029671;28;20465;-67
2023/06/29 07:25:42;;;;;;;15.95;9.05;;;20.90;83.50;;;;;;5016904;28;20104;-67
2023/06/29 07:28:08;;;;;;;17.92;8.95;;;20.90;82.90;;;;;;5026524;28;20040;-66
2023/06/29 07:30:33;;;;;;;14.73;8.63;;;20.80;82.40;;;;;;5025460;28;20041;-67
2023/06/29 07:32:59;;;;;;;16.48;9.07;;;20.80;82.10;;;;;;5039661;28;20323;-67
2023/06/29 07:35:25;;;;;;;14.13;8.02;;;21.00;82.00;;;;;;5029897;28;20042;-67
2023/06/29 07:37:50;;;;;;;17.67;9.45;;;21.10;82.00;;;;;;5029902;28;20038;-67
2023/06/29 07:40:16;;;;;;;15.50;8.77;;;21.10;80.90;;;;;;5029419;28;20155;-68
2023/06/29 07:42:41;;;;;;;12.32;8.07;;;21.50;81.30;;;;;;5034017;28;20128;-68
2023/06/29 07:45:07;;;;;;;16.08;8.68;;;21.50;80.80;;;;;;5040168;28;20118;-68
2023/06/29 07:47:33;;;;;;;13.82;9.30;;;21.60;79.40;;;;;;5011555;28;20112;-67
2023/06/29 07:49:58;;;;;;;14.38;8.77;;;21.70;79.30;;;;;;5034168;28;20033;-69
2023/06/29 07:52:25;;;;;;;16.17;8.82;;;21.90;78.90;;;;;;5026633;28;20137;-67
2023/06/29 07:54:50;;;;;;;16.15;8.63;;;22.10;79.30;;;;;;5040295;28;20043;-66
2023/06/29 07:57:16;;;;;;;15.73;8.65;;;22.00;78.20;;;;;;5031931;28;20113;-67
2023/06/29 07:59:41;;;;;;;14.85;9.25;;;22.30;79.40;;;;;;5030439;28;20140;-66
2023/06/29 08:02:07;;;;;;;16.42;9.45;;;22.30;77.30;;;;;;5027469;28;20344;-66
2023/06/29 08:04:33;;;;;;;16.60;9.73;;;22.40;77.00;;;;;;5028687;28;20042;-68
2023/06/29 08:06:59;;;;;;;17.75;9.15;;;22.40;77.10;;;;;;5022851;28;20359;-66
2023/06/29 08:09:24;;;;;;;14.00;9.23;;;22.40;76.50;;;;;;5027552;28;20039;-65
2023/06/29 08:11:50;;;;;;;11.48;8.68;;;22.30;77.60;;;;;;5031107;28;20041;-66
2023/06/29 08:14:15;;;;;;;15.98;9.48;;;22.10;77.70;;;;;;5028753;28;20033;-68
2023/06/29 08:16:41;;;;;;;17.75;9.40;;;22.30;76.80;;;;;;5028671;28;20107;-68
2023/06/29 08:19:06;;;;;;;17.83;8.82;;;22.10;77.70;;;;;;5030599;28;20060;-66
2023/06/29 08:21:32;;;;;;;18.77;9.77;;;22.30;78.00;;;;;;5023156;28;20025;-66
2023/06/29 08:23:57;;;;;;;17.15;9.20;;;22.20;77.30;;;;;;5037771;28;20051;-67
2023/06/29 08:26:24;;;;;;;15.82;9.65;;;22.20;78.50;;;;;;5028661;28;20175;-69
2023/06/29 08:28:50;;;;;;;13.15;8.93;;;22.30;78.00;;;;;;5029660;28;20084;-66
2023/06/29 08:31:16;;;;;;;16.25;8.88;;;22.50;78.00;;;;;;5031522;28;20045;-69
2023/06/29 08:33:41;;;;;;;19.75;9.45;;;22.60;77.40;;;;;;5033593;28;20072;-66
2023/06/29 08:36:07;;;;;;;17.65;9.45;;;22.60;76.70;;;;;;5028152;28;20487;-66
2023/06/29 08:38:32;;;;;;;13.95;8.90;;;22.90;76.80;;;;;;5036620;28;20043;-66
2023/06/29 08:40:59;;;;;;;17.65;8.73;;;23.00;76.30;;;;;;5029184;28;20041;-66
2023/06/29 08:43:24;;;;;;;16.27;9.60;;;23.00;75.90;;;;;;5038162;28;20334;-67
2023/06/29 08:45:50;;;;;;;17.77;9.65;;;23.30;75.30;;;;;;5025315;28;20051;-67
2023/06/29 08:48:18;;;;;;;15.95;8.77;;;23.40;74.60;;;;;;5030550;28;20395;-67
2023/06/29 08:50:51;;;;;;;16.55;9.52;;;23.60;73.60;;;;;;5023030;28;20040;-66
2023/06/29 08:53:18;;;;;;;16.48;8.80;;;23.90;73.20;;;;;;5024880;28;20036;-66
2023/06/29 08:55:43;;;;;;;15.77;9.40;;;23.80;73.10;;;;;;5027286;28;20476;-67
2023/06/29 08:58:09;;;;;;;16.88;9.38;;;23.70;73.10;;;;;;5029315;28;20470;-66
2023/06/29 09:00:37;;;;;;;17.25;9.55;;;24.00;73.00;;;;;;5027579;28;20022;-67
2023/06/29 09:03:03;;;;;;;18.77;8.88;;;24.00;72.60;;;;;;5032362;28;20150;-67
2023/06/29 09:05:29;;;;;;;16.35;9.43;;;23.90;71.80;;;;;;5004722;28;20033;-67
2023/06/29 09:07:54;;;;;;;17.75;10.30;;;24.10;72.50;;;;;;5019227;28;20037;-67
2023/06/29 09:10:22;;;;;;;17.88;9.95;;;24.00;69.80;;;;;;5029060;28;20108;-70
2023/06/29 09:12:52;;;;;;;16.23;9.10;;;23.90;71.20;;;;;;5035744;28;20037;-70
2023/06/29 09:15:17;;;;;;;16.00;8.20;;;23.80;71.70;;;;;;5020283;28;20060;-66
2023/06/29 09:17:45;;;;;;;17.52;9.85;;;23.90;73.80;;;;;;5025863;28;20065;-66
2023/06/29 09:20:15;;;;;;;16.00;9.32;;;23.80;71.20;;;;;;4999743;28;20033;-68
2023/06/29 09:22:42;;;;;;;16.73;9.48;;;24.00;72.40;;;;;;5018047;28;20369;-69
2023/06/29 09:25:13;;;;;;;15.70;9.57;;;23.70;71.20;;;;;;5021467;28;20036;-67
2023/06/29 09:27:38;;;;;;;18.98;10.18;;;23.60;72.50;;;;;;5026030;28;20056;-67
2023/06/29 09:30:05;;;;;;;17.52;9.55;;;23.30;72.10;;;;;;5028430;28;20030;-67
2023/06/29 09:32:31;;;;;;;20.88;9.85;;;23.30;72.50;;;;;;5009380;28;20445;-65
2023/06/29 09:35:06;;;;;;;17.38;9.75;;;23.20;73.80;;;;;;5023861;28;20151;-67
2023/06/29 09:37:33;;;;;;;14.43;9.52;;;23.30;74.20;;;;;;5023298;28;20116;-71
2023/06/29 09:39:59;;;;;;;15.55;9.18;;;23.10;73.10;;;;;;5029113;28;20394;-70
2023/06/29 09:42:28;;;;;;;20.33;10.18;;;23.10;73.60;;;;;;5009238;28;20075;-67
2023/06/29 09:44:54;;;;;;;17.92;10.25;;;22.80;74.00;;;;;;5027097;28;20413;-67
2023/06/29 09:47:20;;;;;;;16.77;9.60;;;22.90;74.30;;;;;;5026711;28;20033;-66
2023/06/29 09:49:49;;;;;;;17.30;9.65;;;22.70;75.50;;;;;;5026122;28;20132;-66
2023/06/29 09:52:16;;;;;;;18.73;10.48;;;22.50;75.80;;;;;;5026774;28;20079;-66
2023/06/29 09:54:42;;;;;;;18.85;10.65;;;22.30;75.30;;;;;;5026739;28;20091;-66
2023/06/29 09:57:10;;;;;;;18.02;9.73;;;22.40;75.70;;;;;;5010871;28;20067;-66
2023/06/29 09:59:45;;;;;;;17.92;11.23;;;22.40;75.90;;;;;;5027892;28;20414;-67
2023/06/29 10:02:12;;;;;;;20.17;10.00;;;22.40;75.80;;;;;;5027202;28;20422;-66
2023/06/29 10:04:41;;;;;;;16.85;10.40;;;22.40;76.10;;;;;;5026859;28;20481;-68
2023/06/29 10:07:14;;;;;;;22.05;10.80;;;22.50;76.20;;;;;;5023132;28;20029;-65
2023/06/29 10:09:42;;;;;;;19.42;10.55;;;22.50;78.00;;;;;;5019710;28;20437;-67
2023/06/29 10:12:12;;;;;;;20.10;11.70;;;22.50;78.60;;;;;;5022428;28;20036;-66
2023/06/29 10:14:41;;;;;;;17.25;9.75;;;22.50;77.90;;;;;;5022604;28;20041;-66
2023/06/29 10:17:11;;;;;;;19.65;10.95;;;22.50;78.70;;;;;;5027159;28;20090;-67
2023/06/29 10:19:40;;;;;;;20.95;10.38;;;22.30;78.30;;;;;;5028658;28;20124;-68
2023/06/29 10:22:09;;;;;;;20.08;11.25;;;22.60;80.00;;;;;;5022410;28;20571;-65
2023/06/29 10:24:45;;;;;;;22.90;10.82;;;22.50;77.90;;;;;;5022747;28;20037;-67
2023/06/29 10:27:12;;;;;;;19.25;11.48;;;22.50;77.90;;;;;;5024827;28;20033;-67
2023/06/29 10:29:50;;;;;;;19.80;11.43;;;22.50;77.10;;;;;;5022035;28;20037;-67
2023/06/29 10:32:29;;;;;;;18.55;10.70;;;22.70;76.30;;;;;;5026359;28;20033;-67
2023/06/29 10:35:12;;;;;;;23.42;11.43;;;22.90;76.50;;;;;;5024626;28;20485;-68
2023/06/29 10:37:43;;;;;;;23.50;10.75;;;22.90;76.20;;;;;;5021818;28;20033;-68
2023/06/29 10:40:19;;;;;;;16.33;10.68;;;23.00;76.50;;;;;;5018474;28;20095;-70
2023/06/29 10:42:50;;;;;;;19.17;11.38;;;23.50;75.70;;;;;;5035658;28;20339;-67
2023/06/29 10:45:18;;;;;;;19.63;10.98;;;23.40;75.00;;;;;;5020652;28;20092;-67
2023/06/29 10:48:05;;;;;;;19.25;11.10;;;23.30;74.50;;;;;;5025571;28;20110;-68
2023/06/29 10:50:42;;;;;;;21.20;11.35;;;23.20;73.90;;;;;;5014477;28;20120;-67
2023/06/29 10:53:10;;;;;;;17.40;10.30;;;23.00;75.50;;;;;;5019663;28;20038;-67
2023/06/29 10:55:40;;;;;;;17.73;10.88;;;23.00;75.50;;;;;;5024893;28;20056;-68
2023/06/29 10:58:19;;;;;;;16.02;10.77;;;22.90;76.30;;;;;;5024860;28;20050;-68
2023/06/29 11:00:44;;;;;;;18.50;11.38;;;22.80;76.20;;;;;;5026326;28;20026;-67
2023/06/29 11:03:10;;;;;;;18.90;11.15;;;22.70;76.10;;;;;;5029586;28;20052;-66
2023/06/29 11:05:36;;;;;;;21.27;10.95;;;22.40;76.40;;;;;;5016950;28;20044;-68
2023/06/29 11:08:03;;;;;;;24.23;12.38;;;22.40;77.80;;;;;;5006476;28;20025;-66
2023/06/29 11:10:29;;;;;;;22.05;12.35;;;22.40;77.50;;;;;;5028363;28;20105;-68
2023/06/29 11:12:54;;;;;;;22.85;13.60;;;22.10;77.80;;;;;;5030951;28;20488;-67
2023/06/29 11:15:21;;;;;;;20.52;13.55;;;21.60;81.20;;;;;;5020171;28;20021;-69
2023/06/29 11:17:49;;;;;;;21.25;13.68;;;21.50;81.70;;;;;;5036167;28;20021;-68
2023/06/29 11:20:16;;;;;;;19.63;13.32;;;21.20;84.30;;;;;;5030171;28;20033;-67
2023/06/29 11:22:43;;;;;;;27.27;15.07;;;21.20;84.00;;;;;;5024608;28;20311;-67
2023/06/29 11:25:16;;;;;;;22.10;14.35;;;21.20;84.90;;;;;;5021701;28;20504;-73
2023/06/29 11:27:42;;;;;;;22.30;14.20;;;21.10;84.00;;;;;;5023559;28;20056;-67
2023/06/29 11:30:10;;;;;;;22.27;14.70;;;21.30;83.60;;;;;;5026930;28;20037;-67
2023/06/29 11:32:36;;;;;;;24.75;13.57;;;21.40;84.50;;;;;;5026163;28;20058;-66
2023/06/29 11:35:04;;;;;;;24.60;14.40;;;21.40;83.10;;;;;;5015715;28;20048;-67
2023/06/29 11:37:30;;;;;;;20.27;13.00;;;21.60;82.20;;;;;;5029656;28;20100;-66
2023/06/29 11:39:56;;;;;;;24.90;12.60;;;22.00;82.80;;;;;;5023035;28;20034;-66
2023/06/29 11:42:24;;;;;;;20.85;13.25;;;21.90;82.40;;;;;;5028340;28;20041;-66
2023/06/29 11:45:04;;;;;;;23.23;13.55;;;22.40;81.20;;;;;;5027701;28;20296;-66
2023/06/29 11:47:30;;;;;;;23.35;11.95;;;22.90;79.80;;;;;;5023899;28;20037;-67
2023/06/29 11:50:00;;;;;;;19.08;11.55;;;23.30;79.40;;;;;;5021261;28;20482;-68
2023/06/29 11:52:30;;;;;;;17.63;11.25;;;23.70;78.00;;;;;;5024605;28;20094;-68
2023/06/29 11:54:57;;;;;;;20.85;11.55;;;23.80;72.80;;;;;;5028354;28;20026;-65
2023/06/29 11:57:23;;;;;;;16.95;11.02;;;23.50;75.40;;;;;;5028701;28;20114;-66
2023/06/29 11:59:48;;;;;;;19.52;11.73;;;23.40;75.70;;;;;;5017609;28;20170;-66
2023/06/29 12:02:15;;;;;;;19.83;11.15;;;23.50;75.20;;;;;;5016521;28;20029;-66
2023/06/29 12:04:54;;;;;;;15.75;10.65;;;23.30;75.30;;;;;;5021037;28;20033;-68
2023/06/29 12:07:40;;;;;;;17.57;10.80;;;23.30;74.60;;;;;;5024530;28;20482;-67
2023/06/29 12:10:11;;;;;;;16.63;10.82;;;23.20;77.60;;;;;;5023888;28;20472;-67
2023/06/29 12:12:45;;;;;;;20.95;10.85;;;23.10;76.50;;;;;;5029815;28;20117;-67
2023/06/29 12:15:21;;;;;;;17.00;10.55;;;23.40;77.90;;;;;;5027501;28;20025;-66
2023/06/29 12:17:49;;;;;;;16.33;10.88;;;23.40;76.40;;;;;;5026842;28;20180;-66
2023/06/29 12:20:22;;;;;;;20.27;11.35;;;23.50;76.90;;;;;;5021967;28;20410;-65
2023/06/29 12:22:53;;;;;;;18.95;11.80;;;23.60;75.00;;;;;;5024128;28;20461;-66
2023/06/29 12:25:19;;;;;;;21.08;11.30;;;23.80;76.10;;;;;;5028069;28;20040;-65
2023/06/29 12:27:47;;;;;;;23.25;11.93;;;23.10;76.00;;;;;;5023339;28;20033;-65
2023/06/29 12:30:15;;;;;;;19.73;11.10;;;22.80;76.60;;;;;;5030029;28;20083;-67